Terminal Aerodrome Forecast
Issued by NWS Portland, ME

Home | Current Version | Previous Version | Text Only | Print | Product List | Glossary On
Versions: 1 2 3 4 5 6 7 8 9 10 11 12 13 14 15 16 17 18 19 20 21 22 23 24 25
000
FTUS41 KGYX 220530
TAFPWM
TAF
KPWM 220530Z 2206/2306 03012KT 4SM -RA BR OVC005
      TEMPO 2206/2208 2SM RA BR
     FM220900 01015G25KT 4SM -RA BR OVC005
     FM222100 02020G30KT 4SM -RA BR OVC003 WS020/02050KT=

USA.gov is the U.S. government's official web portal to all federal, state and local government web resources and services.